Terminal Aerodrome Forecast
Issued by NWS

Home | Current Version | Previous Version | Text Only | Print | Product List | Glossary Off
Versions: 1 2 3 4 5 6 7 8 9 10 11 12 13 14 15

000
FTUS43 KICT 151900 AAA
TAFRSL
TAF AMD
KRSL 151932Z 1520/1618 21018G28KT P6SM BKN250
     FM160300 17020G26KT P6SM FEW250
     FM161500 24020G30KT P6SM SCT250=

USA.gov is the U.S. government's official web portal to all federal, state and local government web resources and services.